METAR Data
IDs: Format: Raw Decoded Include TAF

Data at: 1012 UTC 28 Sep 2021

VTUK 281000Z 33006KT 9999 FEW018CB SCT030 30/25 Q1008 NOSIG
VTUK 280900Z 32004KT 280V340 9999 VCSH FEW018CB SCT030 BKN100 31/25 Q1008 TEMPO FM0915 TL1015 4000 TSRA
VTUK 280800Z 25004KT 220V280 9999 BKN030 30/25 Q1008 NOSIG
VTUK 280700Z 22005KT 180V260 9999 BKN030 31/25 Q1009 NOSIG
VTUK 280600Z VRB04KT 9999 BKN025 31/25 Q1010 NOSIG
VTUK 280500Z VRB03KT 9999 BKN025 32/25 Q1011 NOSIG
VTUK 280400Z 35004KT 280V070 9999 BKN025 31/24 Q1012 NOSIG
VTUK 280300Z VRB02KT 9999 SCT030 29/24 Q1013 NOSIG
VTUK 280200Z 05004KT 010V090 9999 FEW030 29/25 Q1013 NOSIG
VTUK 280100Z 02004KT 350V060 9999 FEW030 SCT100 27/24 Q1012 NOSIG
VTUK 280000Z 05004KT 020V080 9999 -RA FEW030 BKN100 25/24 Q1011 NOSIG
VTUK 272300Z 04002KT 9999 FEW010 BKN100 24/24 Q1011 NOSIG
VTUK 272200Z VRB01KT 9000 FEW010 BKN100 24/24 Q1010 NOSIG
VTUK 272100Z VRB02KT 9000 FEW030 BKN100 24/24 Q1010 NOSIG
VTUK 272000Z 32003KT 9000 FEW030 BKN100 24/24 Q1010 NOSIG
VTUK 271900Z 32003KT 9000 FEW030 BKN100 24/24 Q1010 NOSIG
VTUK 271800Z VRB02KT 9000 FEW030 24/24 Q1011 NOSIG
VTUK 271700Z 33003KT 9000 FEW030 BKN100 24/24 Q1011 NOSIG
VTUK 271600Z 29003KT 9000 -RA FEW030 BKN100 25/24 Q1012 NOSIG
VTUK 271500Z 33004KT 9000 -RA FEW030 BKN100 25/24 Q1012 NOSIG
VTUK 271400Z VRB02KT 9000 FEW030 BKN100 26/24 Q1012 NOSIG
VTUK 271300Z VRB02KT 9000 FEW030 BKN100 26/23 Q1011 TEMPO FM1310 4500 TSRA
VTUK 271200Z 22005KT 180V240 9999 FEW030 BKN100 26/23 Q1010 TEMPO FM1220 4000 TSRA
VTUK 271100Z 23004KT 9999 FEW030 BKN100 27/23 Q1009 NOSIG
VTUK 271000Z 22003KT 9999 FEW030 BKN100 28/24 Q1008 NOSIG
VTUK 270900Z VRB02KT 9999 VCSH FEW018CB SCT030 BKN100 31/24 Q1008 NOSIG
VTUK 270800Z VRB02KT 9999 SCT030 BKN100 32/23 Q1008 NOSIG
VTUK 270700Z VRB02KT 9999 SCT030 SCT100 31/24 Q1009 NOSIG
VTUK 270600Z VRB03KT 9999 SCT030 SCT100 32/24 Q1010 NOSIG
VTUK 270500Z 10004KT 010V180 9999 SCT030 SCT100 30/24 Q1011 NOSIG
VTUK 270400Z 08006KT 040V130 9999 BKN030 29/24 Q1012 NOSIG
VTUK 270300Z VRB05KT 9999 BKN030 28/24 Q1012 NOSIG
VTUK 270200Z 08003KT 030V140 9999 FEW030 SCT100 28/24 Q1012 NOSIG
VTUK 270100Z VRB02KT 9999 FEW030 BKN100 26/24 Q1012 NOSIG
VTUK 270000Z 32002KT 9999 FEW030 BKN100 25/24 Q1011 NOSIG
VTUK 262300Z 34003KT 9000 FEW030 BKN100 24/24 Q1010 NOSIG

VTUD 281000Z 30003KT 270V330 9999 FEW030 32/23 Q1007 NOSIG
VTUD 280900Z VRB02KT 9999 FEW030 31/24 Q1007 NOSIG
VTUD 280800Z 08003KT 020V140 9999 SCT030 33/23 Q1008 NOSIG
VTUD 280700Z VRB03KT 9999 SCT030 34/24 Q1008 NOSIG
VTUD 280600Z VRB04KT 9999 BKN030 32/23 Q1010 NOSIG
VTUD 280500Z 01004KT 310V060 9999 BKN030 31/23 Q1011 NOSIG
VTUD 280400Z 02004KT 310V070 9999 SCT025 32/24 Q1012 NOSIG
VTUD 280300Z VRB04KT 9999 SCT020 31/24 Q1012 NOSIG
VTUD 280200Z 08005KT 040V150 9999 SCT020 31/23 Q1012 NOSIG
VTUD 280100Z VRB02KT 9999 FEW020 27/24 Q1012 NOSIG
VTUD 280000Z 05003KT 010V080 9999 FEW020 26/24 Q1011 NOSIG
VTUD 272300Z 00000KT 9000 FEW020 25/24 Q1010 NOSIG
VTUD 271100Z 12005KT 9999 FEW025CB SCT035 29/23 Q1008 NOSIG
VTUD 271000Z 11006KT 9999 FEW025CB SCT035 30/24 Q1008 NOSIG
VTUD 270900Z 09005KT 9999 FEW025CB SCT035 33/24 Q1007 NOSIG
VTUD 270800Z VRB04KT 9999 FEW025CB FEW035 34/23 Q1007 NOSIG
VTUD 270700Z 08006KT 040V120 9999 SCT035 33/22 Q1008 NOSIG
VTUD 270600Z 06007KT 010V110 9999 SCT035 33/23 Q1009 NOSIG
VTUD 270500Z 10008KT 050V130 9999 SCT030 31/22 Q1011 NOSIG
VTUD 270400Z 08006KT 030V120 9999 SCT030 31/23 Q1011 NOSIG
VTUD 270300Z 07004KT 040V130 9999 FEW020 SCT080 30/23 Q1012 NOSIG
VTUD 270200Z VRB02KT 9999 FEW010 SCT020 27/23 Q1012 NOSIG
VTUD 270100Z VRB02KT 9999 FEW010 SCT020 25/24 Q1011 NOSIG
VTUD 270000Z 29002KT 9999 FEW010 SCT020 24/23 Q1011 NOSIG
VTUD 262300Z 00000KT 9999 FEW020 SCT050 23/23 Q1010 NOSIG

VTUL 281000Z 06003KT 020V090 9999 BKN025 30/23 Q1008 NOSIG
VTUL 280900Z 07004KT 030V120 9999 BKN025 31/24 Q1008 NOSIG
VTUL 280800Z 05004KT 360V110 9999 BKN025 31/23 Q1009 NOSIG
VTUL 280700Z 04007KT 360V070 9999 BKN025 30/25 Q1009 NOSIG
VTUL 280600Z VRB02KT 9999 BKN025 31/24 Q1010 NOSIG
VTUL 280500Z VRB03KT 9999 BKN025 30/25 Q1012 NOSIG
VTUL 280400Z VRB02KT 9999 BKN025 29/24 Q1013 NOSIG
VTUL 280300Z VRB04KT 9999 BKN025 27/24 Q1013 NOSIG
VTUL 280200Z 36005KT 310V030 9999 BKN025 26/24 Q1013 NOSIG
VTUL 280100Z 36004KT 320V040 9999 BKN025 25/23 Q1013 NOSIG
VTUL 280000Z 00000KT 9999 BKN025 23/23 Q1012 NOSIG
VTUL 272300Z 00000KT 9999 BKN025 23/23 Q1011 NOSIG
VTUL 271200Z VRB02KT 9999 -RA BKN025 25/24 Q1010 NOSIG
VTUL 271100Z 00000KT 9999 -RA BKN025 25/24 Q1009 NOSIG
VTUL 271000Z 00000KT 9999 -RA BKN025 26/24 Q1009 NOSIG
VTUL 270900Z 24004KT 220V280 9999 BKN025 28/25 Q1008 NOSIG
VTUL 270800Z 36004KT 9999 BKN025 27/25 Q1009 NOSIG
VTUL 270700Z 35004KT 320V030 9999 BKN025 27/25 Q1009 NOSIG
VTUL 270600Z 36008KT 9999 BKN025 27/25 Q1010 NOSIG
VTUL 270500Z VRB03KT 9999 BKN025 29/25 Q1011 NOSIG
VTUL 270400Z 23003KT 150V270 9999 BKN025 27/24 Q1012 NOSIG
VTUL 270300Z 00000KT 9999 BKN025 27/24 Q1012 NOSIG
VTUL 270200Z 00000KT 9999 BKN025 26/24 Q1012 NOSIG
VTUL 270100Z 00000KT 9999 BKN025 24/24 Q1012 NOSIG
VTUL 270000Z 06001KT 9999 BKN020 OVC040 24/24 Q1011 NOSIG
VTUL 262300Z 00000KT 9999 BKN020 OVC040 24/23 Q1011 NOSIG

VTUI 281000Z VRB02KT 9999 SCT030 32/23 Q1007 NOSIG
VTUI 280900Z 04003KT 360V070 9999 BKN030 32/23 Q1007 NOSIG
VTUI 280800Z 05004KT 020V080 9999 BKN030 32/24 Q1007 NOSIG
VTUI 280700Z 11004KT 050V160 9999 BKN030 32/23 Q1009 NOSIG
VTUI 280600Z VRB04KT 9999 SCT030 31/23 Q1009 NOSIG
VTUI 280500Z 14004KT 070V200 9999 SCT030 32/24 Q1011 NOSIG
VTUI 280400Z 11003KT 050V180 9999 SCT030 30/24 Q1011 NOSIG
VTUI 280300Z 12004KT 070V200 9999 FEW030 29/23 Q1012 NOSIG
VTUI 280200Z VRB03KT 9999 FEW030 29/23 Q1012 NOSIG
VTUI 280100Z VRB02KT 9999 SCT030 27/24 Q1012 NOSIG
VTUI 280000Z 04003KT 9999 FEW030 SCT100 25/24 Q1011 NOSIG
VTUI 271200Z 06007KT 9999 SCT030 28/24 Q1008 NOSIG
VTUI 271100Z 05008KT 9999 BKN030 29/24 Q1008 NOSIG
VTUI 271000Z 10005KT 060V130 9999 BKN030 32/24 Q1007 NOSIG
VTUI 270900Z 10005KT 070V140 9999 FEW015TCU BKN030 31/23 Q1007 NOSIG
VTUI 270800Z 13004KT 070V180 9999 BKN030 32/23 Q1008 NOSIG
VTUI 270700Z 11004KT 020V150 9999 BKN030 32/23 Q1008 NOSIG
VTUI 270600Z 11006KT 060V160 9999 BKN030 31/24 Q1009 NOSIG
VTUI 270500Z 12006KT 090V170 9999 BKN030 31/24 Q1011 NOSIG
VTUI 270400Z 11007KT 070V130 9999 BKN030 30/24 Q1011 NOSIG
VTUI 270300Z 11008KT 070V130 9999 SCT030 29/24 Q1012 NOSIG
VTUI 270200Z 10004KT 060V150 9999 FEW030 SCT100 28/24 Q1011 NOSIG
VTUI 270100Z 10003KT 070V140 9999 FEW030 SCT100 26/25 Q1011 NOSIG
VTUI 270000Z 30002KT 9999 FEW030 SCT100 25/24 Q1011 NOSIG

VTUW 281000Z 24003KT 200V280 9999 FEW030 32/22 Q1008 NOSIG
VTUW 280900Z 21003KT 170V300 9999 FEW030 33/22 Q1007 NOSIG
VTUW 280800Z 26003KT 190V330 9999 FEW030 33/22 Q1007 NOSIG
VTUW 280700Z 12003KT 050V200 9999 FEW030 33/22 Q1008 NOSIG
VTUW 280600Z VRB03KT 9999 FEW030 32/22 Q1009 NOSIG
VTUW 280500Z 11005KT 050V190 9999 FEW025 32/21 Q1010 NOSIG
VTUW 280400Z 06004KT 320V100 9999 FEW025 31/22 Q1011 NOSIG
VTUW 280300Z 07004KT 360V130 9999 FEW025 30/22 Q1012 NOSIG
VTUW 280200Z VRB03KT 9999 FEW015 29/23 Q1012 NOSIG
VTUW 280100Z VRB02KT 9999 FEW010 28/23 Q1012 NOSIG
VTUW 280000Z 33003KT 9999 FEW010 25/25 Q1011 NOSIG
VTUW 271300Z 01003KT 9999 FEW030 26/26 Q1010 NOSIG
VTUW 271200Z 01004KT 9999 FEW030 26/26 Q1009 NOSIG
VTUW 271100Z 01006KT 9999 FEW030 27/25 Q1008 NOSIG
VTUW 271000Z 02007KT 350V050 9999 FEW030 28/24 Q1008 NOSIG
VTUW 270900Z 03009KT 9999 SCT030 30/25 Q1008 RETS NOSIG
VTUW 270800Z 08004KT 030V180 9999 4000N TS VCSH FEW018CB SCT030 32/23 Q1008 NOSIG
VTUW 270700Z 14006KT 100V180 9999 4500N VCTS VCSH FEW018CB SCT030 32/23 Q1008 NOSIG
VTUW 270600Z 14008KT 110V170 9999 FEW030 32/23 Q1009 NOSIG
VTUW 270500Z 14007KT 090V190 9999 SCT030 31/24 Q1011 NOSIG
VTUW 270400Z 11007KT 060V150 9999 SCT025 31/25 Q1011 NOSIG
VTUW 270300Z 11005KT 070V150 9999 FEW025 30/23 Q1012 NOSIG
VTUW 270200Z 11005KT 070V140 9999 FEW025 29/23 Q1012 NOSIG
VTUW 270100Z 12004KT 9999 FEW025 SCT100 28/24 Q1011 NOSIG
VTUW 270000Z 00000KT 9999 FEW010 SCT100 25/25 Q1011 NOSIG